Tapachula, Mexico

9:30 AM CST on December 29, 2014 (GMT -0600)
Retalhuleu | Change Station
CLOSE
Current Station
Airport
Location: Retalhuleu,
Elevation: 784 ft
Nearby Weather Stations

Elev 784 ft 14.53 °N, 91.67 °W | Updated 30 minutes ago

Clear
Clear
82 °F
Feels Like 85 °F
N
0
Wind Variable Wind from North

Today
High -- | Low -- °F
--% Chance of Precip.
Yesterday
High -- | Low -- °F
Precip. -- in
6:33 AM 5:48 PM
First Quarter, 60% visible
Pressure 30.04 in
Visibility -9999.0 miles
Clouds
Heat Index 85 °F
Dew Point 68 °F
Humidity 62%
Rainfall 0.00 in
Snow Depth Not available.
UV Not available.
Pollen Not available.
Air Quality Not available.
Flu Activity Not available.
METAR MGRT 291500Z 00000KT CAVOK 28/20 Q1017 A3003 FEW200 VOL. STA. MARIA Y SANTIAGUITO EN ACTIVIDAD

More Conditions Fewer Conditions

Pressure 30.04 in
Visibility -9999.0 miles
Clouds
Heat Index 85 °F
Dew Point 68 °F
Humidity 62%
Rainfall 0.00 in
Snow Depth Not available.
UV Not available.
Pollen Not available.
Air Quality Not available.
Flu Activity Not available.
METAR MGRT 291500Z 00000KT CAVOK 28/20 Q1017 A3003 FEW200 VOL. STA. MARIA Y SANTIAGUITO EN ACTIVIDAD

More Conditions Fewer Conditions

10-Day Weather Forecast

Almanac

Astronomy

Dec. 29, 2014 Rise Set
Actual Time
Civil Twilight
Nautical Twilight
Astronomical Twilight
Moon
Length of Visible Light
Length of Day
Tomorrow will be .
, % of the Moon is Illuminated

Today's Extremes

Country Highs Country Lows

Community

WunderPhotos

Upload Photos

1,781,604 photos uploaded!

WunderBlogs® & News

Nearby

Air Quality

  Air Quality AQ Index Pollutant
Not available.

Snow Depth

Station Depth Elevation

Earthquake Activity

City Distance Mag. Time & Date
Minimum magnitude displayed is 2.5.

Coastal Water Temperatures

Place Temperature

Nearby Weather Stations